createdAt,value
2023-01-11T00:01:50.462Z,-11.74
2023-01-11T00:06:54.062Z,-11.72
2023-01-11T00:11:57.668Z,-11.79
2023-01-11T00:17:02.741Z,-11.78
2023-01-11T00:22:06.426Z,-11.67
2023-01-11T00:27:10.038Z,-11.68
2023-01-11T00:32:15.073Z,-11.57
2023-01-11T00:37:18.695Z,-11.71
2023-01-11T00:42:39.311Z,-11.70
2023-01-11T00:48:00.839Z,-11.61
2023-01-11T00:53:05.017Z,-11.40
2023-01-11T00:58:08.654Z,-11.53
2023-01-11T01:03:13.442Z,-11.50
2023-01-11T01:08:18.804Z,-11.58
2023-01-11T01:13:39.436Z,-11.46
2023-01-11T01:18:44.966Z,-11.34
2023-01-11T01:23:48.469Z,-11.37
2023-01-11T01:28:51.996Z,-11.45
2023-01-11T01:33:56.874Z,-11.34
2023-01-11T01:39:01.524Z,-11.17
2023-01-11T01:44:07.549Z,-11.10
2023-01-11T01:49:16.787Z,-11.38
2023-01-11T01:54:24.389Z,-11.02
2023-01-11T01:59:29.848Z,-11.06
2023-01-11T02:04:37.446Z,-10.88
2023-01-11T02:09:45.909Z,-11.00
2023-01-11T02:14:50.721Z,-10.91
2023-01-11T02:19:59.385Z,-10.92
2023-01-11T02:25:41.114Z,-10.73
2023-01-11T02:30:53.954Z,-11.03
2023-01-11T02:36:07.683Z,-10.68
2023-01-11T02:41:21.578Z,-10.79
2023-01-11T02:46:33.557Z,-10.99
2023-01-11T02:51:44.310Z,-10.99
2023-01-11T02:56:50.622Z,-10.85
2023-01-11T03:01:56.223Z,-10.99
2023-01-11T03:07:16.743Z,-11.04
2023-01-11T03:12:55.016Z,-11.00
2023-01-11T03:18:13.378Z,-10.97
2023-01-11T03:23:22.469Z,-10.86
2023-01-11T03:28:36.688Z,-11.12
2023-01-11T03:33:48.273Z,-11.08
2023-01-11T03:38:57.453Z,-11.04
2023-01-11T03:44:02.913Z,-11.00
2023-01-11T03:49:14.485Z,-10.93
2023-01-11T03:54:24.653Z,-10.89
2023-01-11T03:59:29.111Z,-10.96
2023-01-11T04:04:33.896Z,-11.08
2023-01-11T04:09:38.342Z,-10.90
2023-01-11T04:14:41.801Z,-10.82
2023-01-11T04:19:46.894Z,-10.96
2023-01-11T04:24:50.403Z,-10.96
2023-01-11T04:29:53.988Z,-10.86
2023-01-11T04:34:58.875Z,-11.06
2023-01-11T04:40:02.742Z,-11.30
2023-01-11T04:45:08.167Z,-11.21
2023-01-11T04:50:13.925Z,-11.18
2023-01-11T04:55:17.509Z,-11.31
2023-01-11T05:00:21.437Z,-11.39
2023-01-11T05:05:26.216Z,-11.25
2023-01-11T05:10:29.960Z,-11.30
2023-01-11T05:15:33.542Z,-11.29
2023-01-11T05:20:38.668Z,-11.38
2023-01-11T05:25:42.209Z,-11.30
2023-01-11T05:30:45.803Z,-11.35
2023-01-11T05:35:50.865Z,-11.29
2023-01-11T05:40:58.789Z,-11.49
2023-01-11T05:46:02.683Z,-11.38
2023-01-11T05:51:07.837Z,-11.28
2023-01-11T05:56:11.410Z,-11.36
2023-01-11T06:01:14.866Z,-11.26
2023-01-11T06:06:21.104Z,-11.17
2023-01-11T06:11:24.967Z,-11.05
2023-01-11T06:16:28.684Z,-10.83
2023-01-11T06:21:33.746Z,-10.84
2023-01-11T06:26:37.337Z,-10.69
2023-01-11T06:31:40.988Z,-10.59
2023-01-11T06:36:46.086Z,-10.79
2023-01-11T06:41:49.686Z,-10.49
2023-01-11T06:46:53.449Z,-10.41
2023-01-11T06:51:58.433Z,-10.36
2023-01-11T06:57:02.141Z,-10.37
2023-01-11T07:02:05.712Z,-10.13
2023-01-11T07:07:10.732Z,-10.04
2023-01-11T07:12:14.349Z,-10.37
2023-01-11T07:17:17.931Z,-9.91
2023-01-11T07:22:23.786Z,-9.67
2023-01-11T07:27:27.398Z,-9.74
2023-01-11T07:32:30.859Z,-9.77
2023-01-11T07:37:38.984Z,-9.81
2023-01-11T07:42:59.689Z,-9.69
2023-01-11T07:48:04.337Z,-9.48
2023-01-11T07:53:10.098Z,-9.30
2023-01-11T07:58:14.790Z,-9.10
2023-01-11T08:03:18.191Z,-9.13
2023-01-11T08:08:23.571Z,-8.89
2023-01-11T08:13:44.219Z,-9.03
2023-01-11T08:18:47.866Z,-8.86
2023-01-11T08:23:54.784Z,-9.08
2023-01-11T08:28:58.412Z,-8.93
2023-01-11T08:34:01.944Z,-8.75
2023-01-11T08:39:07.142Z,-8.70
2023-01-11T08:44:14.688Z,-8.94
2023-01-11T08:49:18.570Z,-8.82
2023-01-11T08:54:23.685Z,-8.75
2023-01-11T08:59:27.332Z,-8.84
2023-01-11T09:04:30.807Z,-8.94
2023-01-11T09:09:37.292Z,-9.06
2023-01-11T09:14:40.774Z,-8.70
2023-01-11T09:19:44.517Z,-8.98
2023-01-11T09:24:49.281Z,-8.80
2023-01-11T09:29:53.237Z,-8.77
2023-01-11T09:34:58.330Z,-8.92
2023-01-11T09:40:03.737Z,-8.87
2023-01-11T09:45:16.029Z,-8.88
2023-01-11T09:50:23.996Z,-8.96
2023-01-11T09:55:34.903Z,-8.55
2023-01-11T10:00:52.001Z,-8.76
2023-01-11T10:06:09.219Z,-8.41
2023-01-11T10:18:37.855Z,-8.43
2023-01-11T10:22:31.793Z,-8.60
2023-01-11T10:27:40.714Z,-8.43
2023-01-11T10:33:06.019Z,-8.05
2023-01-11T10:38:41.293Z,-8.28
2023-01-11T10:43:50.855Z,-8.64
2023-01-11T10:49:04.980Z,-8.32
2023-01-11T10:54:16.951Z,-8.62
2023-01-11T10:59:39.890Z,-8.49
2023-01-11T11:04:58.732Z,-8.79
2023-01-11T11:10:12.475Z,-8.32
2023-01-11T11:15:25.548Z,-8.56
2023-01-11T11:20:33.647Z,-8.25
2023-01-11T11:25:40.050Z,-8.38
2023-01-11T11:30:48.621Z,-8.34
2023-01-11T11:35:58.093Z,-8.46
2023-01-11T11:41:08.563Z,-8.53
2023-01-11T11:46:26.660Z,-8.68
2023-01-11T11:51:30.306Z,-8.54
2023-01-11T11:56:37.820Z,-8.90
2023-01-11T12:01:47.178Z,-8.96
2023-01-11T12:07:06.037Z,-8.88
2023-01-11T12:12:16.041Z,-9.05
2023-01-11T12:17:26.764Z,-9.21
2023-01-11T12:22:30.699Z,-9.32
2023-01-11T12:27:42.265Z,-9.15
2023-01-11T12:33:21.249Z,-9.29
2023-01-11T12:38:44.670Z,-9.31
2023-01-11T12:44:00.276Z,-9.31
2023-01-11T12:49:20.117Z,-9.39
2023-01-11T12:54:39.854Z,-9.58
2023-01-11T13:00:12.155Z,-9.66
2023-01-11T13:05:24.774Z,-9.44
2023-01-11T13:10:38.333Z,-9.56
2023-01-11T13:21:25.850Z,-9.59
2023-01-11T13:26:35.484Z,-9.71
2023-01-11T13:31:39.868Z,-9.76
2023-01-11T13:36:47.160Z,-9.62
2023-01-11T13:41:56.691Z,-9.52
2023-01-11T13:47:07.666Z,-9.66
2023-01-11T13:52:15.080Z,-9.62
2023-01-11T13:57:26.400Z,-9.71
2023-01-11T14:02:38.666Z,-9.57
2023-01-11T14:08:01.116Z,-9.51
2023-01-11T14:13:42.970Z,-9.51
2023-01-11T14:18:55.216Z,-9.73
2023-01-11T14:23:59.733Z,-9.81
2023-01-11T14:29:28.654Z,-9.73
2023-01-11T14:35:13.335Z,-9.58
2023-01-11T14:40:49.844Z,-9.55
2023-01-11T14:46:16.362Z,-9.81
2023-01-11T14:51:33.635Z,-9.70
2023-01-11T14:56:49.415Z,-9.44
2023-01-11T15:02:28.460Z,-9.33
2023-01-11T15:07:38.002Z,-9.24
2023-01-11T15:12:42.442Z,-9.35
2023-01-11T15:18:07.792Z,-9.22
2023-01-11T15:23:17.630Z,-9.30
2023-01-11T15:28:44.849Z,-9.48
2023-01-11T15:33:51.160Z,-9.08
2023-01-11T15:39:01.576Z,-9.13
2023-01-11T15:44:36.620Z,-9.30
2023-01-11T15:49:54.817Z,-9.20
2023-01-11T15:55:25.960Z,-9.16
2023-01-11T16:01:04.476Z,-9.22
2023-01-11T16:06:17.845Z,-9.09
2023-01-11T16:11:33.715Z,-9.18
2023-01-11T16:16:41.638Z,-9.37
2023-01-11T16:21:49.611Z,-9.27
2023-01-11T16:26:58.836Z,-9.27
2023-01-11T16:32:04.921Z,-9.37
2023-01-11T16:37:23.513Z,-9.11
2023-01-11T16:42:31.742Z,-9.20
2023-01-11T16:47:35.539Z,-9.21
2023-01-11T16:52:49.841Z,-9.24
2023-01-11T16:57:58.957Z,-9.59
2023-01-11T17:03:13.528Z,-9.17
2023-01-11T17:08:26.206Z,-9.26
2023-01-11T17:14:02.943Z,-9.06
2023-01-11T17:19:10.100Z,-9.20
2023-01-11T17:24:15.639Z,-9.10
2023-01-11T17:29:28.852Z,-9.15
2023-01-11T17:34:35.090Z,-9.06
2023-01-11T17:39:41.106Z,-9.22
2023-01-11T17:45:05.368Z,-9.09
2023-01-11T17:50:22.222Z,-8.87
2023-01-11T17:55:28.513Z,-8.94
2023-01-11T18:00:33.613Z,-8.90
2023-01-11T18:05:37.546Z,-8.87
2023-01-11T18:10:45.045Z,-8.75
2023-01-11T18:15:50.077Z,-8.46
2023-01-11T18:20:53.780Z,-8.38
2023-01-11T18:26:25.513Z,-8.35
2023-01-11T18:31:30.824Z,-8.26
2023-01-11T18:36:34.717Z,-8.46
2023-01-11T18:41:56.451Z,-8.31
2023-01-11T18:47:01.657Z,-8.37
2023-01-11T18:52:05.978Z,-8.23
2023-01-11T18:57:09.972Z,-8.42
2023-01-11T19:02:21.643Z,-8.24
2023-01-11T19:07:26.453Z,-8.24
2023-01-11T19:12:29.927Z,-8.23
2023-01-11T19:17:35.021Z,-8.44
2023-01-11T19:22:38.794Z,-8.39
2023-01-11T19:27:42.615Z,-8.42
2023-01-11T19:32:52.002Z,-8.27
2023-01-11T19:37:55.581Z,-8.37
2023-01-11T19:43:00.111Z,-8.59
2023-01-11T19:48:05.587Z,-8.51
2023-01-11T19:53:09.008Z,-8.32
2023-01-11T19:58:12.624Z,-8.34
2023-01-11T20:03:17.352Z,-8.40
2023-01-11T20:08:22.633Z,-8.63
2023-01-11T20:13:26.133Z,-8.44
2023-01-11T20:18:31.211Z,-8.57
2023-01-11T20:23:34.990Z,-8.47
2023-01-11T20:28:38.581Z,-8.48
2023-01-11T20:33:43.473Z,-8.32
2023-01-11T20:38:47.297Z,-8.60
2023-01-11T20:43:50.611Z,-8.46
2023-01-11T20:48:55.772Z,-8.43
2023-01-11T20:53:59.285Z,-8.34
2023-01-11T20:59:03.662Z,-8.55
2023-01-11T21:04:10.599Z,-8.38
2023-01-11T21:09:16.096Z,-8.23
2023-01-11T21:14:19.566Z,-8.41
2023-01-11T21:19:27.662Z,-8.38
2023-01-11T21:24:31.312Z,-8.19
2023-01-11T21:29:35.000Z,-8.16
2023-01-11T21:34:39.877Z,-8.23
2023-01-11T21:39:43.424Z,-8.37
2023-01-11T21:44:46.949Z,-8.28
2023-01-11T21:49:52.041Z,-8.23
2023-01-11T21:54:55.464Z,-8.21
2023-01-11T21:59:59.004Z,-8.17
2023-01-11T22:05:03.803Z,-8.11
2023-01-11T22:10:07.797Z,-8.21
2023-01-11T22:15:12.034Z,-8.22
2023-01-11T22:20:17.750Z,-8.26
2023-01-11T22:25:21.053Z,-8.25
2023-01-11T22:30:24.767Z,-8.26
2023-01-11T22:35:31.221Z,-8.25
2023-01-11T22:40:34.844Z,-8.16
2023-01-11T22:45:38.340Z,-8.34
2023-01-11T22:50:43.429Z,-8.15
2023-01-11T22:55:46.920Z,-8.27
2023-01-11T23:00:50.282Z,-8.19
2023-01-11T23:05:55.042Z,-8.08
2023-01-11T23:11:00.452Z,-8.14
2023-01-11T23:16:03.938Z,-8.14
2023-01-11T23:21:08.967Z,-8.05
2023-01-11T23:26:13.128Z,-8.03
2023-01-11T23:31:19.029Z,-7.88
2023-01-11T23:36:25.792Z,-7.83
2023-01-11T23:41:46.900Z,-7.72
2023-01-11T23:47:23.955Z,-8.00
2023-01-11T23:52:31.303Z,-7.90
2023-01-11T23:57:34.841Z,-7.79
